DETFC EDDV-EDDK
Flight info
| Callsign | DETFC |
|---|---|
| Flight time | N/A |
| Altitude | |
| Route | |
| Aircraft | P28A |
Departure
| Time | N/A |
|---|---|
| Airport | Hannover Airport (EDDV) |
Arrival
| Time | 2026-04-26 19:26 |
|---|---|
| Airport | Cologne Bonn Airport (EDDK) |
| Time | Latitude | Longitude | Altitude | Speed | Heading |
|---|---|---|---|---|---|
| 2026-04-26 19:01 | 51.45015 | 7.62255 | 4490 ft | 147 kts | 188° |
| 2026-04-26 19:02 | 51.43992 | 7.62052 | 4489 ft | 147 kts | 188° |
| 2026-04-26 19:02 | 51.42973 | 7.61870 | 4488 ft | 147 kts | 182° |
| 2026-04-26 19:02 | 51.41983 | 7.61617 | 4481 ft | 144 kts | 189° |
| 2026-04-26 19:02 | 51.41334 | 7.61792 | 4488 ft | 143 kts | 158° |
| 2026-04-26 19:03 | 51.40052 | 7.62375 | 4494 ft | 146 kts | 166° |
| 2026-04-26 19:03 | 51.39059 | 7.62772 | 4498 ft | 147 kts | 166° |
| 2026-04-26 19:03 | 51.38059 | 7.63171 | 4499 ft | 148 kts | 166° |
| 2026-04-26 19:03 | 51.37137 | 7.63839 | 4487 ft | 147 kts | 138° |
| 2026-04-26 19:04 | 51.36389 | 7.64952 | 4488 ft | 147 kts | 136° |
| 2026-04-26 19:04 | 51.35638 | 7.66070 | 4491 ft | 148 kts | 136° |
| 2026-04-26 19:04 | 51.34892 | 7.67185 | 4493 ft | 148 kts | 136° |
| 2026-04-26 19:04 | 51.34158 | 7.68323 | 4494 ft | 146 kts | 136° |
| 2026-04-26 19:05 | 51.32704 | 7.70595 | 4501 ft | 145 kts | 136° |
| 2026-04-26 19:05 | 51.31980 | 7.71724 | 4501 ft | 145 kts | 136° |
| 2026-04-26 19:05 | 51.31254 | 7.72853 | 4499 ft | 145 kts | 136° |
| 2026-04-26 19:06 | 51.30530 | 7.73975 | 4498 ft | 145 kts | 136° |
| 2026-04-26 19:06 | 51.29807 | 7.75096 | 4497 ft | 145 kts | 136° |
| 2026-04-26 19:06 | 51.29093 | 7.76206 | 4498 ft | 145 kts | 136° |
| 2026-04-26 19:06 | 51.28370 | 7.77330 | 4497 ft | 145 kts | 136° |
| 2026-04-26 19:07 | 51.27646 | 7.78456 | 4499 ft | 145 kts | 136° |
| 2026-04-26 19:07 | 51.26922 | 7.79578 | 4498 ft | 145 kts | 136° |
| 2026-04-26 19:07 | 51.26197 | 7.80703 | 4493 ft | 145 kts | 136° |
| 2026-04-26 19:07 | 51.25481 | 7.81816 | 4494 ft | 145 kts | 136° |
| 2026-04-26 19:08 | 51.24752 | 7.82935 | 4488 ft | 144 kts | 142° |
| 2026-04-26 19:08 | 51.23807 | 7.83216 | 4491 ft | 142 kts | 191° |
| 2026-04-26 19:08 | 51.22854 | 7.82879 | 4493 ft | 142 kts | 193° |
| 2026-04-26 19:08 | 51.21888 | 7.82544 | 4496 ft | 143 kts | 193° |
| 2026-04-26 19:09 | 51.20914 | 7.82209 | 4500 ft | 143 kts | 193° |
| 2026-04-26 19:09 | 51.20010 | 7.81622 | 4495 ft | 140 kts | 218° |
| 2026-04-26 19:09 | 51.19245 | 7.80633 | 4441 ft | 144 kts | 220° |
| 2026-04-26 19:09 | 51.18455 | 7.79617 | 4358 ft | 148 kts | 220° |
| 2026-04-26 19:10 | 51.17650 | 7.78574 | 4272 ft | 149 kts | 220° |
| 2026-04-26 19:10 | 51.16856 | 7.77530 | 4185 ft | 150 kts | 220° |
| 2026-04-26 19:10 | 51.16046 | 7.76474 | 4092 ft | 150 kts | 216° |
| 2026-04-26 19:10 | 51.15090 | 7.75811 | 4002 ft | 150 kts | 199° |
| 2026-04-26 19:11 | 51.14101 | 7.75263 | 3913 ft | 151 kts | 199° |
| 2026-04-26 19:11 | 51.13112 | 7.74704 | 3839 ft | 151 kts | 199° |
| 2026-04-26 19:11 | 51.12132 | 7.74139 | 3798 ft | 148 kts | 199° |
| 2026-04-26 19:11 | 51.11175 | 7.73583 | 3796 ft | 145 kts | 199° |
| 2026-04-26 19:12 | 51.10237 | 7.73048 | 3799 ft | 144 kts | 199° |
| 2026-04-26 19:12 | 51.09291 | 7.72510 | 3799 ft | 144 kts | 199° |
| 2026-04-26 19:12 | 51.08349 | 7.71966 | 3798 ft | 144 kts | 199° |
| 2026-04-26 19:12 | 51.07415 | 7.71425 | 3784 ft | 141 kts | 199° |
| 2026-04-26 19:13 | 51.06501 | 7.70899 | 3786 ft | 138 kts | 199° |
| 2026-04-26 19:13 | 51.05586 | 7.70373 | 3705 ft | 141 kts | 199° |
| 2026-04-26 19:13 | 51.04658 | 7.69837 | 3630 ft | 142 kts | 199° |
| 2026-04-26 19:13 | 51.03741 | 7.69305 | 3557 ft | 143 kts | 198° |
| 2026-04-26 19:14 | 51.02807 | 7.68744 | 3479 ft | 143 kts | 199° |
| 2026-04-26 19:14 | 51.01869 | 7.68180 | 3352 ft | 145 kts | 199° |
| 2026-04-26 19:14 | 51.00919 | 7.67602 | 3229 ft | 147 kts | 199° |
| 2026-04-26 19:14 | 51.00607 | 7.67416 | 3188 ft | 148 kts | 199° |
| 2026-04-26 19:15 | 50.99002 | 7.66455 | 2993 ft | 147 kts | 198° |
| 2026-04-26 19:15 | 50.98064 | 7.65879 | 2995 ft | 142 kts | 199° |
| 2026-04-26 19:15 | 50.97151 | 7.65315 | 2993 ft | 140 kts | 199° |
| 2026-04-26 19:15 | 50.96247 | 7.64751 | 2989 ft | 139 kts | 199° |
| 2026-04-26 19:16 | 50.95350 | 7.64190 | 2987 ft | 139 kts | 199° |
| 2026-04-26 19:16 | 50.94451 | 7.63626 | 2987 ft | 139 kts | 199° |
| 2026-04-26 19:16 | 50.93549 | 7.63062 | 2986 ft | 139 kts | 199° |
| 2026-04-26 19:16 | 50.92663 | 7.62510 | 2987 ft | 139 kts | 199° |
| 2026-04-26 19:17 | 50.91757 | 7.61950 | 2990 ft | 139 kts | 199° |
| 2026-04-26 19:17 | 50.90854 | 7.61399 | 2990 ft | 139 kts | 199° |
| 2026-04-26 19:17 | 50.90055 | 7.60604 | 2971 ft | 139 kts | 235° |
| 2026-04-26 19:17 | 50.89860 | 7.59134 | 2975 ft | 137 kts | 258° |
| 2026-04-26 19:18 | 50.89585 | 7.57682 | 2983 ft | 138 kts | 252° |
| 2026-04-26 19:18 | 50.89299 | 7.56223 | 2986 ft | 139 kts | 252° |
| 2026-04-26 19:18 | 50.89014 | 7.54763 | 2958 ft | 142 kts | 252° |
| 2026-04-26 19:18 | 50.88713 | 7.53253 | 2897 ft | 145 kts | 252° |
| 2026-04-26 19:19 | 50.88405 | 7.51734 | 2826 ft | 145 kts | 252° |
| 2026-04-26 19:19 | 50.88092 | 7.50210 | 2739 ft | 145 kts | 252° |
| 2026-04-26 19:19 | 50.87785 | 7.48720 | 2741 ft | 141 kts | 252° |
| 2026-04-26 19:19 | 50.87484 | 7.47256 | 2738 ft | 139 kts | 252° |
| 2026-04-26 19:20 | 50.87286 | 7.46295 | 2735 ft | 138 kts | 252° |
| 2026-04-26 19:20 | 50.87074 | 7.45344 | 2730 ft | 137 kts | 245° |
| 2026-04-26 19:20 | 50.86126 | 7.44039 | 2719 ft | 136 kts | 210° |
| 2026-04-26 19:20 | 50.85071 | 7.42986 | 2720 ft | 136 kts | 211° |
| 2026-04-26 19:21 | 50.84602 | 7.42305 | 2712 ft | 137 kts | 230° |
| 2026-04-26 19:21 | 50.84307 | 7.40904 | 2699 ft | 137 kts | 268° |
| 2026-04-26 19:21 | 50.84285 | 7.39414 | 2702 ft | 137 kts | 269° |
| 2026-04-26 19:21 | 50.84262 | 7.37904 | 2699 ft | 137 kts | 269° |
| 2026-04-26 19:22 | 50.84237 | 7.36333 | 2516 ft | 148 kts | 269° |
| 2026-04-26 19:22 | 50.84205 | 7.34721 | 2499 ft | 143 kts | 269° |
| 2026-04-26 19:22 | 50.84177 | 7.33156 | 2499 ft | 141 kts | 269° |
| 2026-04-26 19:22 | 50.84145 | 7.31606 | 2496 ft | 141 kts | 269° |
| 2026-04-26 19:23 | 50.84105 | 7.30072 | 2495 ft | 142 kts | 269° |
| 2026-04-26 19:23 | 50.84064 | 7.28509 | 2495 ft | 142 kts | 269° |
| 2026-04-26 19:23 | 50.84117 | 7.26965 | 2483 ft | 139 kts | 290° |
| 2026-04-26 19:23 | 50.84772 | 7.25922 | 2481 ft | 134 kts | 327° |
| 2026-04-26 19:24 | 50.85426 | 7.24871 | 2487 ft | 136 kts | 313° |
| 2026-04-26 19:24 | 50.86059 | 7.23747 | 2489 ft | 137 kts | 314° |
| 2026-04-26 19:24 | 50.87337 | 7.21469 | 2234 ft | 132 kts | 314° |
| 2026-04-26 19:25 | 50.87713 | 7.20234 | 1926 ft | 126 kts | 274° |
| 2026-04-26 19:25 | 50.87769 | 7.19294 | 1591 ft | 130 kts | 274° |
| 2026-04-26 19:25 | 50.87493 | 7.17352 | 851 ft | 138 kts | 249° |
| 2026-04-26 19:25 | 50.87106 | 7.16006 | 416 ft | 128 kts | 246° |
| 2026-04-26 19:26 | 50.86759 | 7.14825 | 261 ft | 105 kts | 245° |
| 2026-04-26 19:26 | 50.86479 | 7.13916 | 252 ft | 82 kts | 244° |
| 2026-04-26 19:26 | 50.86298 | 7.13329 | 243 ft | 29 kts | 244° |
| 2026-04-26 19:26 | 50.86275 | 7.13252 | 242 ft | 12 kts | 243° |
| 2026-04-26 19:27 | 50.86195 | 7.12993 | 237 ft | 33 kts | 245° |
| 2026-04-26 19:27 | 50.86159 | 7.12863 | 237 ft | 0 kts | 245° |
| 2026-04-26 19:27 | 50.86088 | 7.12626 | 239 ft | 47 kts | 244° |
| 2026-04-26 19:27 | 50.86053 | 7.12402 | 238 ft | 7 kts | 320° |
| 2026-04-26 19:28 | 50.86067 | 7.12385 | 238 ft | 0 kts | 322° |
| 2026-04-26 19:28 | 50.86102 | 7.12373 | 237 ft | 16 kts | 350° |
| 2026-04-26 19:28 | 50.86227 | 7.12333 | 231 ft | 20 kts | 347° |
| 2026-04-26 19:29 | 50.86368 | 7.12279 | 226 ft | 21 kts | 345° |
| 2026-04-26 19:29 | 50.86502 | 7.12227 | 226 ft | 19 kts | 345° |
| 2026-04-26 19:29 | 50.86628 | 7.12174 | 226 ft | 20 kts | 346° |
| 2026-04-26 19:29 | 50.86794 | 7.12106 | 226 ft | 28 kts | 345° |
| 2026-04-26 19:30 | 50.86934 | 7.12051 | 227 ft | 4 kts | 353° |
| 2026-04-26 19:30 | 50.86936 | 7.12051 | 227 ft | 0 kts | 352° |
| 2026-04-26 19:33 | 50.86971 | 7.12049 | 228 ft | 14 kts | 3° |
| 2026-04-26 19:33 | 50.87068 | 7.12105 | 230 ft | 15 kts | 37° |
| 2026-04-26 19:34 | 50.87139 | 7.12213 | 229 ft | 8 kts | 50° |
| 2026-04-26 19:34 | 50.87161 | 7.12276 | 230 ft | 0 kts | 75° |
| 2026-04-26 19:34 | 50.87147 | 7.12353 | 230 ft | 11 kts | 144° |
| 2026-04-26 19:34 | 50.87153 | 7.12439 | 229 ft | 9 kts | 46° |
| 2026-04-26 19:35 | 50.87199 | 7.12516 | 227 ft | 10 kts | 46° |
| 2026-04-26 19:35 | 50.87232 | 7.12571 | 225 ft | 6 kts | 22° |
| 2026-04-26 19:35 | 50.87275 | 7.12512 | 225 ft | 0 kts | 325° |
| 2026-04-26 19:36 | 50.87276 | 7.12510 | 225 ft | 2 kts | 321° |
| 2026-04-26 19:36 | 50.87294 | 7.12498 | 225 ft | 4 kts | 58° |
| 2026-04-26 19:36 | 50.87294 | 7.12499 | 225 ft | 0 kts | 75° |